createdAt,value
2024-05-09T00:01:56.377Z,22.3
2024-05-09T00:06:58.807Z,22.3
2024-05-09T00:12:01.353Z,22.3
2024-05-09T00:17:03.852Z,22.3
2024-05-09T00:22:06.351Z,22.3
2024-05-09T00:27:10.057Z,22.3
2024-05-09T00:35:53.276Z,22.3
2024-05-09T00:40:55.704Z,22.3
2024-05-09T00:45:58.298Z,22.2
2024-05-09T00:51:00.823Z,22.2
2024-05-09T00:56:03.527Z,22.2
2024-05-09T01:01:05.995Z,22.2
2024-05-09T01:06:08.482Z,22.2
2024-05-09T01:11:10.989Z,22.2
2024-05-09T01:16:13.857Z,22.2
2024-05-09T01:21:16.288Z,22.2
2024-05-09T01:26:18.905Z,22.2
2024-05-09T01:31:21.352Z,22.2
2024-05-09T01:36:23.764Z,22.2
2024-05-09T01:41:26.291Z,22.2
2024-05-09T01:46:28.901Z,22.2
2024-05-09T01:51:31.303Z,22.2
2024-05-09T01:56:33.787Z,22.2
2024-05-09T02:01:54.842Z,22.2
2024-05-09T02:06:59.963Z,22.2
2024-05-09T02:12:02.485Z,22.2
2024-05-09T02:17:05.049Z,22.2
2024-05-09T02:22:07.492Z,22.2
2024-05-09T02:27:09.924Z,22.2
2024-05-09T02:32:12.426Z,22.2
2024-05-09T02:37:15.046Z,22.2
2024-05-09T02:42:17.443Z,22.1
2024-05-09T02:47:19.983Z,22.2
2024-05-09T02:55:42.613Z,22.1
2024-05-09T03:00:45.412Z,22.1
2024-05-09T03:05:48.052Z,22.1
2024-05-09T03:10:50.566Z,22.1
2024-05-09T03:15:53.086Z,22.1
2024-05-09T03:20:55.656Z,22.1
2024-05-09T03:25:58.113Z,22.1
2024-05-09T03:31:00.542Z,22.1
2024-05-09T03:36:03.003Z,22.1
2024-05-09T03:41:05.415Z,22.2
2024-05-09T03:46:07.915Z,22.2
2024-05-09T03:51:10.392Z,22.1
2024-05-09T03:56:12.831Z,22.1
2024-05-09T04:01:15.320Z,22.1
2024-05-09T04:06:17.913Z,22.1
2024-05-09T04:11:20.375Z,22.1
2024-05-09T04:16:22.881Z,22.1
2024-05-09T04:21:25.319Z,22.1
2024-05-09T04:26:27.790Z,22.1
2024-05-09T04:31:30.207Z,22.1
2024-05-09T04:36:32.621Z,22.1
2024-05-09T04:41:35.060Z,22.1
2024-05-09T04:46:37.611Z,22.1
2024-05-09T04:51:40.038Z,22.2
2024-05-09T04:56:42.483Z,22.1
2024-05-09T05:01:45.017Z,22.2
2024-05-09T05:06:47.518Z,22.1
2024-05-09T05:14:50.028Z,22.1
2024-05-09T05:19:52.607Z,22.1
2024-05-09T05:24:55.111Z,22.1
2024-05-09T05:29:57.541Z,22.1
2024-05-09T05:34:59.975Z,22.2
2024-05-09T05:40:02.480Z,22.2
2024-05-09T05:45:06.745Z,22.2
2024-05-09T05:50:17.715Z,22.2
2024-05-09T05:55:35.186Z,22.2
2024-05-09T06:00:38.956Z,22.2
2024-05-09T06:05:43.894Z,22.3
2024-05-09T06:10:46.867Z,22.3
2024-05-09T06:15:49.508Z,22.1
2024-05-09T06:20:52.060Z,22.1
2024-05-09T06:25:54.562Z,22
2024-05-09T06:30:57.031Z,22
2024-05-09T06:35:59.453Z,22
2024-05-09T06:41:01.899Z,22
2024-05-09T06:46:04.451Z,22
2024-05-09T06:51:06.979Z,22
2024-05-09T06:56:09.639Z,21.9
2024-05-09T07:01:12.071Z,21.8
2024-05-09T07:06:14.749Z,21.8
2024-05-09T07:11:17.356Z,21.9
2024-05-09T07:16:19.771Z,21.9
2024-05-09T07:21:22.229Z,21.9
2024-05-09T07:26:24.687Z,21.9
2024-05-09T07:34:38.944Z,21.9
2024-05-09T07:39:41.443Z,22
2024-05-09T07:44:43.928Z,21.8
2024-05-09T07:55:21.061Z,21.8
2024-05-09T08:00:27.219Z,21.8
2024-05-09T08:05:33.769Z,21.8
2024-05-09T08:10:36.402Z,21.8
2024-05-09T08:15:38.894Z,21.8
2024-05-09T08:20:41.515Z,21.8
2024-05-09T08:25:44.276Z,21.7
2024-05-09T08:30:46.807Z,21.6
2024-05-09T08:35:49.689Z,21.6
2024-05-09T08:40:52.154Z,21.6
2024-05-09T08:45:54.707Z,21.6
2024-05-09T08:50:57.124Z,21.6
2024-05-09T08:55:59.826Z,21.5
2024-05-09T09:01:02.355Z,21.5
2024-05-09T11:30:35.057Z,21.5
2024-05-09T11:35:37.587Z,21.9
2024-05-09T11:40:40.040Z,22
2024-05-09T11:45:42.876Z,21.9
2024-05-09T11:50:45.297Z,21.9
2024-05-09T11:55:47.742Z,21.9
2024-05-09T12:00:50.393Z,21.8
2024-05-09T12:05:52.966Z,21.9
2024-05-09T12:10:55.704Z,21.9
2024-05-09T12:15:58.676Z,21.9
2024-05-09T12:21:01.113Z,21.9
2024-05-09T12:26:03.522Z,21.9
2024-05-09T12:31:05.996Z,22
2024-05-09T12:36:08.498Z,22
2024-05-09T12:41:10.895Z,22
2024-05-09T12:46:13.361Z,22
2024-05-09T12:51:16.045Z,22.1
2024-05-09T12:56:18.424Z,22.1
2024-05-09T13:01:20.964Z,22.1
2024-05-09T13:06:23.432Z,22.1
2024-05-09T13:11:25.866Z,22.1
2024-05-09T13:16:28.366Z,22.1
2024-05-09T13:21:30.892Z,22.1
2024-05-09T13:26:33.403Z,22.1
2024-05-09T13:31:35.859Z,22.1
2024-05-09T13:36:38.288Z,22.1
2024-05-09T13:41:40.693Z,22.2
2024-05-09T13:49:42.957Z,22.1
2024-05-09T13:54:45.515Z,22.1
2024-05-09T13:59:47.940Z,22.2
2024-05-09T14:04:50.477Z,22.2
2024-05-09T14:09:53.299Z,22.2
2024-05-09T14:14:55.709Z,22.2
2024-05-09T14:19:58.145Z,22.2
2024-05-09T14:25:00.638Z,22.3
2024-05-09T14:30:04.291Z,22.2
2024-05-09T14:35:18.821Z,22.2
2024-05-09T14:40:29.712Z,22.2
2024-05-09T14:45:44.222Z,22.3
2024-05-09T14:50:46.801Z,22.3
2024-05-09T14:55:49.471Z,22.3
2024-05-09T15:00:52.338Z,22.3
2024-05-09T15:05:55.339Z,22.3
2024-05-09T15:10:57.897Z,22.3
2024-05-09T15:16:00.591Z,22.3
2024-05-09T15:21:03.243Z,22.3
2024-05-09T15:26:05.725Z,22.3
2024-05-09T15:31:08.143Z,22.3
2024-05-09T15:36:10.622Z,22.3
2024-05-09T15:41:13.049Z,22.3
2024-05-09T15:46:15.503Z,22.3
2024-05-09T15:51:17.915Z,22.3
2024-05-09T15:56:20.343Z,22.4
2024-05-09T16:01:22.835Z,22.3
2024-05-09T16:09:31.728Z,22.4
2024-05-09T16:14:34.196Z,22.4
2024-05-09T16:19:36.591Z,22.4
2024-05-09T16:24:39.024Z,22.4
2024-05-09T16:29:41.444Z,22.4
2024-05-09T16:34:43.934Z,22.4
2024-05-09T16:39:46.402Z,22.4
2024-05-09T16:44:48.845Z,22.4
2024-05-09T16:49:51.328Z,22.4
2024-05-09T16:54:53.749Z,22.5
2024-05-09T16:59:56.220Z,22.5
2024-05-09T17:04:58.764Z,22.5
2024-05-09T17:10:01.259Z,22.5
2024-05-09T17:15:04.277Z,22.5
2024-05-09T17:20:08.452Z,22.5
2024-05-09T17:25:14.935Z,22.5
2024-05-09T17:30:24.407Z,22.5
2024-05-09T17:35:36.932Z,22.4
2024-05-09T17:40:39.947Z,22.4
2024-05-09T17:45:42.804Z,22.4
2024-05-09T17:50:45.264Z,22.4
2024-05-09T17:55:47.740Z,22.4
2024-05-09T18:00:50.341Z,22.4
2024-05-09T18:05:53.119Z,22.3
2024-05-09T18:10:56.180Z,22.3
2024-05-09T18:15:58.932Z,22.2
2024-05-09T18:21:01.368Z,22.1
2024-05-09T18:29:22.093Z,22.1
2024-05-09T18:34:24.818Z,22
2024-05-09T18:39:27.280Z,22.1
2024-05-09T18:44:29.728Z,22.2
2024-05-09T18:49:32.448Z,22.3
2024-05-09T18:54:34.996Z,22.3
2024-05-09T18:59:37.448Z,22.4
2024-05-09T19:04:40.082Z,22.4
2024-05-09T19:09:42.766Z,22.4
2024-05-09T19:14:45.219Z,22.5
2024-05-09T19:19:47.707Z,22.4
2024-05-09T19:24:50.231Z,22.5
2024-05-09T19:29:54.741Z,22.4
2024-05-09T19:34:58.790Z,22.5
2024-05-09T19:40:01.408Z,22.5
2024-05-09T19:45:03.930Z,22.5
2024-05-09T19:50:10.468Z,22.5
2024-05-09T19:55:20.032Z,22.5
2024-05-09T20:00:28.780Z,22.5
2024-05-09T20:05:38.316Z,22.6
2024-05-09T20:10:41.263Z,22.6
2024-05-09T20:15:43.934Z,22.6
2024-05-09T20:20:47.250Z,22.6
2024-05-09T20:25:54.066Z,22.6
2024-05-09T20:30:56.491Z,22.6
2024-05-09T20:36:01.171Z,22.6
2024-05-09T20:41:04.112Z,22.6
2024-05-09T20:46:06.630Z,22.6
2024-05-09T20:51:09.117Z,22.6
2024-05-09T20:56:11.529Z,22.7
2024-05-09T21:01:14.002Z,22.6
2024-05-09T21:06:16.527Z,22.6
2024-05-09T21:11:18.994Z,22.6
2024-05-09T21:16:21.587Z,22.6
2024-05-09T21:21:24.057Z,22.6
2024-05-09T21:26:26.491Z,22.6
2024-05-09T21:31:28.967Z,22.7
2024-05-09T21:36:31.518Z,22.6
2024-05-09T21:41:34.039Z,22.6
2024-05-09T21:46:36.550Z,22.6
2024-05-09T21:51:39.208Z,22.6
2024-05-09T21:56:41.651Z,22.7
2024-05-09T22:01:44.147Z,22.6
2024-05-09T22:06:46.648Z,22.7
2024-05-09T22:11:51.400Z,22.7
2024-05-09T22:16:57.827Z,22.7
2024-05-09T22:22:00.291Z,22.7
2024-05-09T22:27:02.743Z,22.7
2024-05-09T22:34:01.135Z,22.7
2024-05-09T22:39:03.691Z,22.8
2024-05-09T22:44:06.112Z,22.7
2024-05-09T22:49:08.642Z,22.7
2024-05-09T22:54:11.168Z,22.7
2024-05-09T22:59:13.590Z,22.7
2024-05-09T23:04:16.089Z,22.7
2024-05-09T23:09:18.634Z,22.7
2024-05-09T23:14:21.033Z,22.7
2024-05-09T23:19:23.527Z,22.7
2024-05-09T23:24:26.000Z,22.7
2024-05-09T23:29:28.385Z,22.7
2024-05-09T23:34:30.833Z,22.7
2024-05-09T23:39:33.428Z,22.7
2024-05-09T23:44:35.876Z,22.7
2024-05-09T23:49:38.354Z,22.7
2024-05-09T23:54:40.812Z,22.7
2024-05-09T23:59:43.224Z,22.7
